Aeroporto :
LOGIN :

Iscrizione | Disclaimer

   EN    FR    IT 

 










Sommario :    VFR   VFR Marginale   IFR   IFR Intensivo   IFR Molto Intensivo
Visibilità : 
Base nubi : 
>= 8 km
>= 3000ft
5 / 8 km
1000 / 3000 ft
1500m / 5 km
500 / 1000 ft
800 / 1500m
200 / 500 ft
< 800m
< 200 ft
Simboli :   Temporali  Nebbia  Neve Forte  Precipitazioni Forti  Vento > 20 kt
SIGMETs :   Varie  Temporali  Ghiacco  Turbolenza  Onda orograficha  Ceneri Vulcaniche






- Altitudine del aeroporto : -11 ft
- Codice IATA : AMS


EHAM - Amsterdam Schiphol

ULTIMO METAR :
  • 101455Z 06009KT 030V090 CAVOK 31/18 Q1014 NOSIG

METARs OBSOLETI :
  • 101425Z 06010KT 030V090 CAVOK 31/18 Q1014 NOSIG
  • 101325Z 05011KT 010V080 CAVOK 31/19 Q1014 NOSIG
  • 101255Z 04009KT 020V080 CAVOK 31/19 Q1015 NOSIG
  • 101225Z 07009KT 030V100 CAVOK 30/18 Q1015 NOSIG

TAF TAF EHAM
Valido dal 10 a 12 ore il 11 a 18 ore UTC


100953Z 1012/1118 06008KT CAVOK
PROB30
TEMPO 1115/1118 VRB20G32KT 4000 TSRA SCT070CB



MetMap, La meteo Aeronautica in un colpo d'occhio ! - Copyright ORBIFLY Dicembre 2007 - Disclaimer

ORBIFLY MET'MAP TEAM :

Programmazione e sviluppo : Alexandra Zaïnal
Concezione : Baudouin d'Aumeries
Aiuto per la programmazione : Marc-Olivier Méhu
Supporto tecnico e logistico : Manuel Goepfert
Aiuto per la traduzione : Arnaldo La Scala

Contatto : metmap@orbifly.com




FONTI E CREDITI :

   NOAA